WetterOnline ( http://www.wetteronline.de )

Wetter aktuell Dessau

Aktuelles Wetter: Wittenberg (106m)

6-stündlich | Neueste Meldungen
Ortszeit Temperatur Wetter
Fr, 22.03. 19:00 11.9° C wolkig
Fr, 22.03. 13:00 13.1° C leicht bewölkt
Fr, 22.03. 7:00 4.2° C wolkig
Fr, 22.03. 1:00 6.7° C wolkig
Do, 21.03. 19:00 11.7° C wolkenlos
Do, 21.03. 13:00 13.6° C bewölkt
Do, 21.03. 7:00 6.0° C wolkig
Do, 21.03. 1:00 8.8° C bedeckt
Ortszeit Temperatur Wetter
Fr, 22.03. 23:00 8.5° C wolkenlos
Fr, 22.03. 22:50 8.5° C wolkenlos
Fr, 22.03. 22:40 8.5° C wolkenlos
Fr, 22.03. 22:30 8.6° C fast wolkenlos
Fr, 22.03. 22:20 8.6° C fast wolkenlos
Fr, 22.03. 22:10 8.7° C fast wolkenlos
Fr, 22.03. 22:00 9.0° C wolkenlos
Fr, 22.03. 21:30 9.3° C wolkenlos
Fr, 22.03. 21:00 9.7° C leicht bewölkt
Fr, 22.03. 20:30 10.2° C fast wolkenlos
Fr, 22.03. 20:00 10.6° C wolkenlos
Ortszeit Relative Feuchte Sichtweite
Fr, 22.03. 19:00 81% 3.8 km
Fr, 22.03. 13:00 71% 5.0 km
Fr, 22.03. 7:00 97% 1.1 km
Fr, 22.03. 1:00 95% 3.8 km
Do, 21.03. 19:00 75% 6 km
Do, 21.03. 13:00 61% 9 km
Do, 21.03. 7:00 83% 8 km
Do, 21.03. 1:00 71% 13 km
Ortszeit Relative Feuchte Sichtweite
Fr, 22.03. 23:00 92% 2.8 km
Fr, 22.03. 22:50 92% -
Fr, 22.03. 22:40 92% -
Fr, 22.03. 22:30 92% 2.8 km
Fr, 22.03. 22:20 92% -
Fr, 22.03. 22:10 92% -
Fr, 22.03. 22:00 90% 3.1 km
Fr, 22.03. 21:30 89% 3.0 km
Fr, 22.03. 21:00 87% 3.3 km
Fr, 22.03. 20:30 86% 3.5 km
Fr, 22.03. 20:00 85% 3.6 km
Ortszeit Niederschlagsmenge Niederschlagsart
Fr, 22.03. 19:00 0.0 l/m2 in 12 Std. -
Fr, 22.03. 13:00 0.0 l/m2 in 6 Std. -
Fr, 22.03. 7:00 0.0 l/m2 in 12 Std. -
Fr, 22.03. 1:00 0.0 l/m2 in 6 Std. -
Do, 21.03. 19:00 0.0 l/m2 in 12 Std. -
Do, 21.03. 13:00 0.0 l/m2 in 6 Std. -
Do, 21.03. 7:00 0.0 l/m2 in 12 Std. -
Do, 21.03. 1:00 0.0 l/m2 in 6 Std. -
Ortszeit Niederschlagsmenge Niederschlagsart
Fr, 22.03. 23:00 0.0 l/m2 in 1 Std. -
Fr, 22.03. 22:50 keine Meldung -
Fr, 22.03. 22:40 keine Meldung -
Fr, 22.03. 22:30 0.0 l/m2 in 1 Std. -
Fr, 22.03. 22:20 keine Meldung -
Fr, 22.03. 22:10 keine Meldung -
Fr, 22.03. 22:00 0.0 l/m2 in 1 Std. -
Fr, 22.03. 21:30 0.0 l/m2 in 1 Std. -
Fr, 22.03. 21:00 0.0 l/m2 in 1 Std. -
Fr, 22.03. 20:30 0.0 l/m2 in 1 Std. -
Fr, 22.03. 20:00 0.0 l/m2 in 1 Std. -
Ortszeit Stärke Spitze Richtung
km/h Bft. km/h Grad Sektor
Fr, 22.03. 19:00 9 2 19 80° O
Fr, 22.03. 13:00 6 1 20 130° SO
Fr, 22.03. 7:00 6 1 9 20° N
Fr, 22.03. 1:00 4 1 11 30° NO
Do, 21.03. 19:00 7 2 29 340° N
Do, 21.03. 13:00 7 2 25 280° W
Do, 21.03. 7:00 7 2 14 240° SW
Do, 21.03. 1:00 7 2 11 210° SW
Ortszeit Stärke Spitze Richtung
km/h Bft. km/h Grad Sektor
Fr, 22.03. 23:00 7 2 15 80° O
Fr, 22.03. 22:50 7 2 - 80° O
Fr, 22.03. 22:40 7 2 - 90° O
Fr, 22.03. 22:30 7 2 11 90° O
Fr, 22.03. 22:20 7 2 - 90° O
Fr, 22.03. 22:10 7 2 - 90° O
Fr, 22.03. 22:00 6 1 15 90° O
Fr, 22.03. 21:30 7 2 14 100° O
Fr, 22.03. 21:00 7 2 14 90° O
Fr, 22.03. 20:30 7 2 14 90° O
Fr, 22.03. 20:00 7 2 18 90° O
Ortszeit Untergrenze Bedeckung Gattung
total tief tief mittel hoch
Fr, 22.03. 19:00 12000 m 7/8 0/8 - - -
Fr, 22.03. 13:00 420 m 2/8 2/8 - - -
Fr, 22.03. 7:00 7800 m 7/8 0/8 - - -
Fr, 22.03. 1:00 8700 m 8/8 0/8 - - -
Do, 21.03. 19:00 - 0/8 0/8 - - -
Do, 21.03. 13:00 810 m 7/8 7/8 - - -
Do, 21.03. 7:00 660 m 6/8 6/8 - - -
Do, 21.03. 1:00 930 m 8/8 8/8 - - -
Ortszeit Bedeckungsgrad in Achtel und Wolkenuntergrenze
Fr, 22.03. 23:00 keine Wolken
Fr, 22.03. 22:50 keine Wolken
Fr, 22.03. 22:40 keine Wolken
Fr, 22.03. 22:30 1(12000m)
Fr, 22.03. 22:20 1(12000m)
Fr, 22.03. 22:10 1(12000m)
Fr, 22.03. 22:00 1(12000m)
Fr, 22.03. 21:30 keine Wolken
Fr, 22.03. 21:00 6(12000m)
Fr, 22.03. 20:30 2(12000m)
Fr, 22.03. 20:00 keine Wolken
Ortszeit Luftdruck NN (hPa) Tendenz (hPa in 3 Std.)
Fr, 22.03. 19:00 1030 - 0,8
Fr, 22.03. 13:00 1033 - 1,4
Fr, 22.03. 7:00 1034 + 0,7
Fr, 22.03. 1:00 1034 + 0,1
Do, 21.03. 19:00 1033 0,0
Do, 21.03. 13:00 1034 - 0,9
Do, 21.03. 7:00 1035 + 0,9
Do, 21.03. 1:00 1035 + 1,0
Ortszeit Luftdruck NN (hPa) Tendenz (hPa in 3 Std.)
Fr, 22.03. 23:00 1029 - 0,9
Fr, 22.03. 22:50 1029 keine Meldung
Fr, 22.03. 22:40 1029 keine Meldung
Fr, 22.03. 22:30 1029 - 0,6
Fr, 22.03. 22:20 1029 keine Meldung
Fr, 22.03. 22:10 1029 keine Meldung
Fr, 22.03. 22:00 1029 - 0,5
Fr, 22.03. 21:30 1029 - 0,4
Fr, 22.03. 21:00 1029 - 0,3
Fr, 22.03. 20:30 1030 - 0,3
Fr, 22.03. 20:00 1030 - 0,3
Ortszeit Schneehöhe (cm)
Fr, 22.03. 19:00 0
Fr, 22.03. 13:00 0
Fr, 22.03. 7:00 0
Fr, 22.03. 1:00 0
Do, 21.03. 19:00 0
Do, 21.03. 13:00 0
Do, 21.03. 7:00 0
Do, 21.03. 1:00 0
Ortszeit Schneehöhe (cm)
Fr, 22.03. 23:00 0
Fr, 22.03. 22:50 0
Fr, 22.03. 22:40 0
Fr, 22.03. 22:30 0
Fr, 22.03. 22:20 0
Fr, 22.03. 22:10 0
Fr, 22.03. 22:00 0
Fr, 22.03. 21:30 0
Fr, 22.03. 21:00 0
Fr, 22.03. 20:30 0
Fr, 22.03. 20:00 0
Link zu dieser Seite / Seite empfehlen

Das Wetter in ...